BON909 VHHH-VIDP
Flight info
| Callsign | BON909 |
|---|---|
| Flight time | 5h 17m |
| Altitude | 36000 |
| Route | PECAN V10 SIKOU/K0889S1100 A202 ASSAD/K0887F360 A206 NALAO/N0478F360 A206 LPB B465 MDY/N0479F380 B465 CEA Q20 JJS W109 BBN R460 LKN R594 JAL JAL7S |
| Aircraft | B77L/H-SDE1E2E3FGHIJ2J3J4J5M1RWXYZ/LB1D1 |
Departure
| Time | 2026-05-05 08:53 |
|---|---|
| Airport | Hong Kong International Airport (VHHH) |
Arrival
| Time | 2026-05-05 14:10 |
|---|---|
| Airport | Indira Gandhi International Airport (VIDP) |
| Time | Latitude | Longitude | Altitude | Speed | Heading |
|---|---|---|---|---|---|
| 2026-05-05 08:29 | 22.30950 | 113.92481 | 41 ft | 0 kts | 115° |
| 2026-05-05 08:43 | 22.30951 | 113.92478 | 41 ft | 3 kts | 115° |
| 2026-05-05 08:43 | 22.30963 | 113.92452 | 41 ft | 4 kts | 115° |
| 2026-05-05 08:43 | 22.30972 | 113.92431 | 41 ft | 4 kts | 126° |
| 2026-05-05 08:43 | 22.30988 | 113.92415 | 41 ft | 4 kts | 163° |
| 2026-05-05 08:44 | 22.31008 | 113.92414 | 41 ft | 3 kts | 205° |
| 2026-05-05 08:44 | 22.31031 | 113.92426 | 41 ft | 4 kts | 206° |
| 2026-05-05 08:44 | 22.31036 | 113.92429 | 41 ft | 0 kts | 206° |
| 2026-05-05 08:46 | 22.31002 | 113.92411 | 41 ft | 19 kts | 206° |
| 2026-05-05 08:46 | 22.30854 | 113.92335 | 41 ft | 24 kts | 200° |
| 2026-05-05 08:46 | 22.30730 | 113.92323 | 41 ft | 9 kts | 221° |
| 2026-05-05 08:47 | 22.30695 | 113.92256 | 41 ft | 11 kts | 249° |
| 2026-05-05 08:47 | 22.30667 | 113.92172 | 42 ft | 16 kts | 251° |
| 2026-05-05 08:47 | 22.30630 | 113.92056 | 42 ft | 17 kts | 251° |
| 2026-05-05 08:47 | 22.30592 | 113.91938 | 42 ft | 17 kts | 251° |
| 2026-05-05 08:48 | 22.30554 | 113.91821 | 41 ft | 17 kts | 251° |
| 2026-05-05 08:48 | 22.30512 | 113.91690 | 41 ft | 21 kts | 251° |
| 2026-05-05 08:48 | 22.30465 | 113.91544 | 41 ft | 21 kts | 251° |
| 2026-05-05 08:48 | 22.30418 | 113.91398 | 41 ft | 21 kts | 251° |
| 2026-05-05 08:49 | 22.30370 | 113.91252 | 41 ft | 21 kts | 250° |
| 2026-05-05 08:49 | 22.30323 | 113.91107 | 41 ft | 21 kts | 251° |
| 2026-05-05 08:49 | 22.30276 | 113.90961 | 40 ft | 21 kts | 250° |
| 2026-05-05 08:49 | 22.30229 | 113.90815 | 41 ft | 21 kts | 251° |
| 2026-05-05 08:50 | 22.30182 | 113.90669 | 41 ft | 21 kts | 251° |
| 2026-05-05 08:50 | 22.30136 | 113.90527 | 41 ft | 21 kts | 250° |
| 2026-05-05 08:50 | 22.30088 | 113.90376 | 39 ft | 21 kts | 251° |
| 2026-05-05 08:50 | 22.30040 | 113.90230 | 41 ft | 21 kts | 250° |
| 2026-05-05 08:51 | 22.29992 | 113.90083 | 41 ft | 21 kts | 251° |
| 2026-05-05 08:51 | 22.29947 | 113.89938 | 41 ft | 21 kts | 250° |
| 2026-05-05 08:51 | 22.29898 | 113.89792 | 41 ft | 21 kts | 246° |
| 2026-05-05 08:51 | 22.29773 | 113.89755 | 41 ft | 21 kts | 162° |
| 2026-05-05 08:52 | 22.29654 | 113.89831 | 39 ft | 21 kts | 109° |
| 2026-05-05 08:52 | 22.29716 | 113.90093 | 40 ft | 57 kts | 72° |
| 2026-05-05 08:52 | 22.29935 | 113.90766 | 40 ft | 131 kts | 71° |
| 2026-05-05 08:52 | 22.30303 | 113.91903 | 124 ft | 177 kts | 69° |
| 2026-05-05 08:53 | 22.30703 | 113.93154 | 876 ft | 179 kts | 70° |
| 2026-05-05 08:53 | 22.31116 | 113.94449 | 1603 ft | 182 kts | 69° |
| 2026-05-05 08:53 | 22.31532 | 113.95737 | 2472 ft | 178 kts | 71° |
| 2026-05-05 08:53 | 22.31931 | 113.96982 | 3280 ft | 179 kts | 68° |
| 2026-05-05 08:54 | 22.32351 | 113.98275 | 3839 ft | 192 kts | 69° |
| 2026-05-05 08:54 | 22.32823 | 113.99738 | 4085 ft | 222 kts | 71° |
| 2026-05-05 08:54 | 22.33340 | 114.01346 | 4755 ft | 230 kts | 71° |
| 2026-05-05 08:54 | 22.33791 | 114.03019 | 5400 ft | 237 kts | 84° |
| 2026-05-05 08:55 | 22.33714 | 114.04815 | 6195 ft | 239 kts | 105° |
| 2026-05-05 08:55 | 22.33038 | 114.06435 | 7007 ft | 239 kts | 128° |
| 2026-05-05 08:55 | 22.31876 | 114.07724 | 7704 ft | 243 kts | 148° |
| 2026-05-05 08:55 | 22.30346 | 114.08491 | 8392 ft | 245 kts | 166° |
| 2026-05-05 08:56 | 22.28665 | 114.08773 | 9144 ft | 244 kts | 184° |
| 2026-05-05 08:56 | 22.26964 | 114.08703 | 9817 ft | 249 kts | 184° |
| 2026-05-05 08:56 | 22.25211 | 114.08684 | 10534 ft | 254 kts | 184° |
| 2026-05-05 08:56 | 22.23394 | 114.08669 | 11080 ft | 271 kts | 185° |
| 2026-05-05 08:57 | 22.21403 | 114.08650 | 11300 ft | 301 kts | 185° |
| 2026-05-05 08:57 | 22.19205 | 114.08639 | 11518 ft | 329 kts | 181° |
| 2026-05-05 08:57 | 22.16873 | 114.09233 | 11683 ft | 366 kts | 157° |
| 2026-05-05 08:57 | 22.14816 | 114.11024 | 12095 ft | 398 kts | 130° |
| 2026-05-05 08:58 | 22.13421 | 114.13657 | 12767 ft | 411 kts | 117° |
| 2026-05-05 08:58 | 22.12215 | 114.16493 | 13591 ft | 420 kts | 117° |
| 2026-05-05 08:58 | 22.10957 | 114.19363 | 14475 ft | 425 kts | 118° |
| 2026-05-05 08:58 | 22.09632 | 114.22221 | 15373 ft | 428 kts | 120° |
| 2026-05-05 08:59 | 22.08237 | 114.25067 | 16131 ft | 430 kts | 124° |
| 2026-05-05 08:59 | 22.06304 | 114.27510 | 16757 ft | 430 kts | 145° |
| 2026-05-05 08:59 | 22.03863 | 114.29337 | 17345 ft | 431 kts | 150° |
| 2026-05-05 08:59 | 22.01370 | 114.31178 | 17982 ft | 433 kts | 151° |
| 2026-05-05 09:00 | 21.98652 | 114.32508 | 18530 ft | 431 kts | 171° |
| 2026-05-05 09:00 | 21.95694 | 114.32780 | 19227 ft | 425 kts | 189° |
| 2026-05-05 09:00 | 21.92847 | 114.32154 | 19987 ft | 420 kts | 202° |
| 2026-05-05 09:00 | 21.90227 | 114.30834 | 20667 ft | 416 kts | 217° |
| 2026-05-05 09:01 | 21.87933 | 114.28956 | 21152 ft | 418 kts | 222° |
| 2026-05-05 09:01 | 21.85657 | 114.26952 | 21701 ft | 424 kts | 223° |
| 2026-05-05 09:01 | 21.83373 | 114.24929 | 22330 ft | 427 kts | 223° |
| 2026-05-05 09:01 | 21.81067 | 114.22908 | 22943 ft | 430 kts | 222° |
| 2026-05-05 09:02 | 21.78729 | 114.20889 | 23518 ft | 433 kts | 222° |
| 2026-05-05 09:02 | 21.76357 | 114.18862 | 24047 ft | 437 kts | 222° |
| 2026-05-05 09:02 | 21.73966 | 114.16828 | 24531 ft | 441 kts | 222° |
| 2026-05-05 09:02 | 21.71553 | 114.14781 | 25023 ft | 444 kts | 222° |
| 2026-05-05 09:03 | 21.69110 | 114.12708 | 25398 ft | 450 kts | 222° |
| 2026-05-05 09:03 | 21.66643 | 114.10615 | 25780 ft | 454 kts | 221° |
| 2026-05-05 09:03 | 21.63979 | 114.08755 | 26194 ft | 463 kts | 210° |
| 2026-05-05 09:03 | 21.60882 | 114.07677 | 26631 ft | 471 kts | 197° |
| 2026-05-05 09:04 | 21.58748 | 114.07195 | 26860 ft | 475 kts | 197° |
| 2026-05-05 09:04 | 21.54399 | 114.06188 | 27385 ft | 480 kts | 198° |
| 2026-05-05 09:04 | 21.52238 | 114.05655 | 27680 ft | 481 kts | 198° |
| 2026-05-05 09:04 | 21.48975 | 114.04819 | 28128 ft | 483 kts | 199° |
| 2026-05-05 09:05 | 21.44655 | 114.03648 | 28686 ft | 483 kts | 202° |
| 2026-05-05 09:05 | 21.41621 | 114.02187 | 29026 ft | 473 kts | 217° |
| 2026-05-05 09:05 | 21.38896 | 114.00204 | 29329 ft | 475 kts | 219° |
| 2026-05-05 09:05 | 21.37057 | 113.98825 | 29527 ft | 478 kts | 219° |
| 2026-05-05 09:06 | 21.34320 | 113.96791 | 29825 ft | 482 kts | 219° |
| 2026-05-05 09:06 | 21.31539 | 113.94765 | 30170 ft | 484 kts | 218° |
| 2026-05-05 09:06 | 21.28742 | 113.92766 | 30601 ft | 483 kts | 218° |
| 2026-05-05 09:06 | 21.25947 | 113.90792 | 31242 ft | 479 kts | 218° |
| 2026-05-05 09:07 | 21.23171 | 113.88838 | 31803 ft | 476 kts | 218° |
| 2026-05-05 09:07 | 21.20402 | 113.86888 | 32278 ft | 475 kts | 218° |
| 2026-05-05 09:07 | 21.17640 | 113.84940 | 32701 ft | 475 kts | 218° |
| 2026-05-05 09:07 | 21.14921 | 113.83023 | 33190 ft | 474 kts | 218° |
| 2026-05-05 09:08 | 21.12203 | 113.80996 | 33641 ft | 467 kts | 224° |
| 2026-05-05 09:08 | 21.09957 | 113.78578 | 33991 ft | 462 kts | 234° |
| 2026-05-05 09:08 | 21.08102 | 113.75794 | 34393 ft | 458 kts | 241° |
| 2026-05-05 09:08 | 21.06639 | 113.72789 | 34797 ft | 453 kts | 251° |
| 2026-05-05 09:09 | 21.05588 | 113.69618 | 35124 ft | 453 kts | 253° |
| 2026-05-05 09:09 | 21.04582 | 113.66414 | 35426 ft | 454 kts | 253° |
| 2026-05-05 09:09 | 21.03587 | 113.63212 | 35795 ft | 453 kts | 253° |
| 2026-05-05 09:09 | 21.02586 | 113.60015 | 36172 ft | 452 kts | 253° |
| 2026-05-05 09:10 | 21.01577 | 113.56832 | 36521 ft | 452 kts | 253° |
| 2026-05-05 09:10 | 21.00557 | 113.53651 | 36812 ft | 452 kts | 253° |
| 2026-05-05 09:10 | 20.99532 | 113.50482 | 37278 ft | 448 kts | 253° |
| 2026-05-05 09:10 | 20.98516 | 113.47358 | 37820 ft | 442 kts | 253° |
| 2026-05-05 09:11 | 20.97503 | 113.44247 | 37950 ft | 445 kts | 253° |
| 2026-05-05 09:11 | 20.95446 | 113.37925 | 37970 ft | 453 kts | 253° |
| 2026-05-05 09:12 | 20.93355 | 113.31515 | 37954 ft | 459 kts | 253° |
| 2026-05-05 09:12 | 20.91244 | 113.25052 | 37962 ft | 461 kts | 253° |
| 2026-05-05 09:13 | 20.89127 | 113.18575 | 37958 ft | 462 kts | 253° |
| 2026-05-05 09:13 | 20.87007 | 113.12097 | 37954 ft | 461 kts | 253° |
| 2026-05-05 09:14 | 20.84885 | 113.05631 | 37953 ft | 460 kts | 253° |
| 2026-05-05 09:14 | 20.82766 | 112.99181 | 37939 ft | 459 kts | 253° |
| 2026-05-05 09:15 | 20.80649 | 112.92745 | 37946 ft | 458 kts | 253° |
| 2026-05-05 09:15 | 20.78551 | 112.86372 | 37943 ft | 457 kts | 253° |
| 2026-05-05 09:16 | 20.76439 | 112.79962 | 37941 ft | 458 kts | 253° |
| 2026-05-05 09:16 | 20.74320 | 112.73550 | 37946 ft | 457 kts | 253° |
| 2026-05-05 09:17 | 20.72202 | 112.67146 | 37942 ft | 458 kts | 253° |
| 2026-05-05 09:17 | 20.70081 | 112.60742 | 37943 ft | 458 kts | 253° |
| 2026-05-05 09:18 | 20.67955 | 112.54330 | 37936 ft | 458 kts | 253° |
| 2026-05-05 09:18 | 20.65825 | 112.47914 | 37939 ft | 459 kts | 253° |
| 2026-05-05 09:19 | 20.63690 | 112.41496 | 37934 ft | 459 kts | 253° |
| 2026-05-05 09:19 | 20.61553 | 112.35076 | 37939 ft | 459 kts | 253° |
| 2026-05-05 09:20 | 20.59409 | 112.28643 | 37934 ft | 460 kts | 253° |
| 2026-05-05 09:20 | 20.57262 | 112.22212 | 37932 ft | 461 kts | 253° |
| 2026-05-05 09:21 | 20.56169 | 112.15600 | 37930 ft | 453 kts | 274° |
| 2026-05-05 09:21 | 20.57561 | 112.09084 | 37922 ft | 452 kts | 294° |
| 2026-05-05 09:22 | 20.60351 | 112.03047 | 37935 ft | 455 kts | 295° |
| 2026-05-05 09:22 | 20.63187 | 111.96991 | 37935 ft | 457 kts | 295° |
| 2026-05-05 09:23 | 20.65975 | 111.90887 | 37926 ft | 458 kts | 295° |
| 2026-05-05 09:23 | 20.68743 | 111.84746 | 37925 ft | 458 kts | 295° |
| 2026-05-05 09:24 | 20.71502 | 111.78603 | 37920 ft | 459 kts | 295° |
| 2026-05-05 09:24 | 20.74260 | 111.72466 | 37921 ft | 458 kts | 295° |
| 2026-05-05 09:25 | 20.77012 | 111.66338 | 37927 ft | 457 kts | 295° |
| 2026-05-05 09:25 | 20.79741 | 111.60258 | 37927 ft | 456 kts | 295° |
| 2026-05-05 09:26 | 20.82394 | 111.54120 | 37918 ft | 452 kts | 287° |
| 2026-05-05 09:26 | 20.83015 | 111.50844 | 37925 ft | 451 kts | 275° |
| 2026-05-05 09:26 | 20.83040 | 111.47484 | 37925 ft | 453 kts | 267° |
| 2026-05-05 09:26 | 20.82527 | 111.44160 | 37907 ft | 455 kts | 255° |
| 2026-05-05 09:27 | 20.81487 | 111.40972 | 37923 ft | 455 kts | 252° |
| 2026-05-05 09:27 | 20.79251 | 111.34616 | 37921 ft | 457 kts | 252° |
| 2026-05-05 09:28 | 20.77037 | 111.28230 | 37918 ft | 459 kts | 252° |
| 2026-05-05 09:28 | 20.74862 | 111.21801 | 37919 ft | 461 kts | 253° |
| 2026-05-05 09:29 | 20.72691 | 111.15347 | 37918 ft | 462 kts | 253° |
| 2026-05-05 09:29 | 20.70518 | 111.08892 | 37917 ft | 462 kts | 253° |
| 2026-05-05 09:30 | 20.68341 | 111.02437 | 37916 ft | 462 kts | 253° |
| 2026-05-05 09:30 | 20.66170 | 110.96014 | 37916 ft | 462 kts | 253° |
| 2026-05-05 09:31 | 20.63985 | 110.89563 | 37918 ft | 462 kts | 253° |
| 2026-05-05 09:31 | 20.61819 | 110.83113 | 37917 ft | 462 kts | 253° |
| 2026-05-05 09:32 | 20.59654 | 110.76659 | 37917 ft | 462 kts | 253° |
| 2026-05-05 09:32 | 20.57481 | 110.70196 | 37913 ft | 462 kts | 253° |
| 2026-05-05 09:33 | 20.55313 | 110.63757 | 37917 ft | 462 kts | 253° |
| 2026-05-05 09:33 | 20.53135 | 110.57304 | 37918 ft | 462 kts | 253° |
| 2026-05-05 09:34 | 20.50660 | 110.50975 | 37912 ft | 465 kts | 245° |
| 2026-05-05 09:34 | 20.47213 | 110.45100 | 37916 ft | 470 kts | 236° |
| 2026-05-05 09:35 | 20.43083 | 110.39686 | 37919 ft | 471 kts | 234° |
| 2026-05-05 09:35 | 20.36813 | 110.31589 | 37918 ft | 472 kts | 234° |
| 2026-05-05 09:36 | 20.32665 | 110.26159 | 37919 ft | 473 kts | 234° |
| 2026-05-05 09:36 | 20.28521 | 110.20724 | 37916 ft | 473 kts | 234° |
| 2026-05-05 09:37 | 20.24410 | 110.15241 | 37917 ft | 474 kts | 235° |
| 2026-05-05 09:37 | 20.20304 | 110.09745 | 37914 ft | 474 kts | 235° |
| 2026-05-05 09:38 | 20.16198 | 110.04265 | 37919 ft | 474 kts | 234° |
| 2026-05-05 09:38 | 20.12076 | 109.98778 | 37916 ft | 474 kts | 234° |
| 2026-05-05 09:39 | 20.07953 | 109.93298 | 37917 ft | 474 kts | 234° |
| 2026-05-05 09:39 | 20.03830 | 109.87816 | 37914 ft | 474 kts | 234° |
| 2026-05-05 09:40 | 19.99709 | 109.82345 | 37920 ft | 474 kts | 234° |
| 2026-05-05 09:40 | 19.95603 | 109.76900 | 37916 ft | 475 kts | 234° |
| 2026-05-05 09:41 | 19.91477 | 109.71433 | 37918 ft | 475 kts | 234° |
| 2026-05-05 09:41 | 19.87344 | 109.65958 | 37913 ft | 475 kts | 234° |
| 2026-05-05 09:42 | 19.83208 | 109.60491 | 37917 ft | 475 kts | 234° |
| 2026-05-05 09:42 | 19.79065 | 109.55018 | 37911 ft | 475 kts | 234° |
| 2026-05-05 09:43 | 19.74926 | 109.49552 | 37904 ft | 475 kts | 234° |
| 2026-05-05 09:43 | 19.70787 | 109.44093 | 37907 ft | 475 kts | 234° |
| 2026-05-05 09:44 | 19.66642 | 109.38629 | 37906 ft | 475 kts | 234° |
| 2026-05-05 09:44 | 19.62503 | 109.33181 | 37904 ft | 475 kts | 234° |
| 2026-05-05 09:45 | 19.58356 | 109.27724 | 37907 ft | 475 kts | 234° |
| 2026-05-05 09:45 | 19.54204 | 109.22266 | 37906 ft | 476 kts | 234° |
| 2026-05-05 09:46 | 19.50040 | 109.16812 | 37910 ft | 476 kts | 234° |
| 2026-05-05 09:46 | 19.45845 | 109.11375 | 37909 ft | 477 kts | 234° |
| 2026-05-05 09:47 | 19.41641 | 109.05938 | 37907 ft | 477 kts | 234° |
| 2026-05-05 09:47 | 19.37442 | 109.00494 | 37911 ft | 477 kts | 234° |
| 2026-05-05 09:48 | 19.33231 | 108.95046 | 37906 ft | 478 kts | 234° |
| 2026-05-05 09:48 | 19.29052 | 108.89640 | 37907 ft | 478 kts | 234° |
| 2026-05-05 09:49 | 19.24841 | 108.84202 | 37910 ft | 477 kts | 234° |
| 2026-05-05 09:49 | 19.20603 | 108.78733 | 37909 ft | 478 kts | 234° |
| 2026-05-05 09:50 | 19.16422 | 108.73339 | 37908 ft | 478 kts | 233° |
| 2026-05-05 09:50 | 19.12205 | 108.67905 | 37906 ft | 477 kts | 233° |
| 2026-05-05 09:51 | 19.07987 | 108.62474 | 37909 ft | 477 kts | 233° |
| 2026-05-05 09:51 | 19.03779 | 108.57059 | 37908 ft | 477 kts | 233° |
| 2026-05-05 09:52 | 18.99566 | 108.51644 | 37907 ft | 477 kts | 233° |
| 2026-05-05 09:52 | 18.95352 | 108.46233 | 37907 ft | 477 kts | 233° |
| 2026-05-05 09:53 | 18.91139 | 108.40828 | 37908 ft | 477 kts | 233° |
| 2026-05-05 09:53 | 18.86926 | 108.35425 | 37908 ft | 477 kts | 233° |
| 2026-05-05 09:54 | 18.82709 | 108.30023 | 37907 ft | 477 kts | 233° |
| 2026-05-05 09:54 | 18.78488 | 108.24620 | 37908 ft | 477 kts | 233° |
| 2026-05-05 09:55 | 18.74271 | 108.19227 | 37908 ft | 477 kts | 233° |
| 2026-05-05 09:55 | 18.70045 | 108.13828 | 37906 ft | 477 kts | 233° |
| 2026-05-05 09:56 | 18.66534 | 108.09346 | 37909 ft | 477 kts | 233° |
| 2026-05-05 09:56 | 18.62309 | 108.03954 | 37906 ft | 477 kts | 233° |
| 2026-05-05 09:57 | 18.58075 | 107.98560 | 37909 ft | 477 kts | 233° |
| 2026-05-05 09:57 | 18.53842 | 107.93170 | 37906 ft | 477 kts | 233° |
| 2026-05-05 09:58 | 18.49603 | 107.87773 | 37908 ft | 478 kts | 233° |
| 2026-05-05 09:58 | 18.45366 | 107.82387 | 37908 ft | 478 kts | 233° |
| 2026-05-05 09:59 | 18.41124 | 107.76997 | 37907 ft | 478 kts | 233° |
| 2026-05-05 09:59 | 18.36974 | 107.71558 | 37893 ft | 472 kts | 242° |
| 2026-05-05 10:00 | 18.35667 | 107.68428 | 37914 ft | 465 kts | 257° |
| 2026-05-05 10:00 | 18.35119 | 107.65096 | 37909 ft | 463 kts | 268° |
| 2026-05-05 10:00 | 18.35273 | 107.61726 | 37894 ft | 460 kts | 282° |
| 2026-05-05 10:00 | 18.35961 | 107.58441 | 37914 ft | 459 kts | 283° |
| 2026-05-05 10:01 | 18.37375 | 107.51854 | 37905 ft | 463 kts | 283° |
| 2026-05-05 10:01 | 18.38736 | 107.45225 | 37903 ft | 465 kts | 282° |
| 2026-05-05 10:02 | 18.40063 | 107.38547 | 37898 ft | 466 kts | 282° |
| 2026-05-05 10:02 | 18.41376 | 107.31900 | 37895 ft | 467 kts | 282° |
| 2026-05-05 10:03 | 18.42697 | 107.25203 | 37889 ft | 467 kts | 282° |
| 2026-05-05 10:03 | 18.44017 | 107.18505 | 37892 ft | 467 kts | 282° |
| 2026-05-05 10:04 | 18.45335 | 107.11815 | 37893 ft | 467 kts | 282° |
| 2026-05-05 10:04 | 18.46649 | 107.05127 | 37885 ft | 466 kts | 282° |
| 2026-05-05 10:05 | 18.47960 | 106.98431 | 37889 ft | 466 kts | 282° |
| 2026-05-05 10:05 | 18.49266 | 106.91744 | 37889 ft | 466 kts | 282° |
| 2026-05-05 10:06 | 18.50568 | 106.85069 | 37886 ft | 465 kts | 282° |
| 2026-05-05 10:06 | 18.51866 | 106.78398 | 37886 ft | 465 kts | 282° |
| 2026-05-05 10:07 | 18.53161 | 106.71727 | 37890 ft | 465 kts | 282° |
| 2026-05-05 10:07 | 18.54454 | 106.65048 | 37881 ft | 465 kts | 282° |
| 2026-05-05 10:08 | 18.55746 | 106.58370 | 37884 ft | 465 kts | 282° |
| 2026-05-05 10:08 | 18.57053 | 106.51688 | 37876 ft | 465 kts | 282° |
| 2026-05-05 10:09 | 18.58365 | 106.45007 | 37881 ft | 466 kts | 282° |
| 2026-05-05 10:09 | 18.59671 | 106.38331 | 37876 ft | 465 kts | 282° |
| 2026-05-05 10:10 | 18.60973 | 106.31654 | 37880 ft | 465 kts | 282° |
| 2026-05-05 10:10 | 18.62272 | 106.24984 | 37877 ft | 465 kts | 281° |
| 2026-05-05 10:11 | 18.63571 | 106.18298 | 37882 ft | 465 kts | 281° |
| 2026-05-05 10:11 | 18.64859 | 106.11659 | 37873 ft | 465 kts | 281° |
| 2026-05-05 10:12 | 18.66148 | 106.04972 | 37879 ft | 466 kts | 281° |
| 2026-05-05 10:12 | 18.67427 | 105.98277 | 37862 ft | 466 kts | 281° |
| 2026-05-05 10:13 | 18.68706 | 105.91579 | 37861 ft | 466 kts | 281° |
| 2026-05-05 10:13 | 18.69985 | 105.84874 | 37860 ft | 467 kts | 281° |
| 2026-05-05 10:14 | 18.71261 | 105.78169 | 37859 ft | 467 kts | 281° |
| 2026-05-05 10:14 | 18.72538 | 105.71445 | 37864 ft | 467 kts | 281° |
| 2026-05-05 10:15 | 18.74048 | 105.64792 | 37863 ft | 467 kts | 288° |
| 2026-05-05 10:15 | 18.76267 | 105.58346 | 37859 ft | 467 kts | 290° |
| 2026-05-05 10:16 | 18.78526 | 105.51913 | 37862 ft | 468 kts | 290° |
| 2026-05-05 10:16 | 18.80762 | 105.45468 | 37861 ft | 468 kts | 289° |
| 2026-05-05 10:17 | 18.82986 | 105.38995 | 37859 ft | 469 kts | 289° |
| 2026-05-05 10:17 | 18.85201 | 105.32525 | 37859 ft | 469 kts | 289° |
| 2026-05-05 10:18 | 18.87415 | 105.26045 | 37853 ft | 470 kts | 289° |
| 2026-05-05 10:18 | 18.89631 | 105.19556 | 37851 ft | 470 kts | 289° |
| 2026-05-05 10:19 | 18.91850 | 105.13056 | 37851 ft | 470 kts | 289° |
| 2026-05-05 10:19 | 18.94066 | 105.06556 | 37851 ft | 470 kts | 289° |
| 2026-05-05 10:20 | 18.96279 | 105.00053 | 37853 ft | 471 kts | 289° |
| 2026-05-05 10:20 | 18.98488 | 104.93547 | 37853 ft | 471 kts | 289° |
| 2026-05-05 10:21 | 19.00700 | 104.87032 | 37848 ft | 471 kts | 289° |
| 2026-05-05 10:21 | 19.02907 | 104.80523 | 37849 ft | 471 kts | 289° |
| 2026-05-05 10:22 | 19.05115 | 104.74002 | 37846 ft | 471 kts | 289° |
| 2026-05-05 10:22 | 19.07320 | 104.67483 | 37850 ft | 471 kts | 289° |
| 2026-05-05 10:23 | 19.09506 | 104.61006 | 37841 ft | 470 kts | 289° |
| 2026-05-05 10:23 | 19.11701 | 104.54497 | 37844 ft | 470 kts | 289° |
| 2026-05-05 10:24 | 19.13898 | 104.47975 | 37836 ft | 471 kts | 289° |
| 2026-05-05 10:24 | 19.16093 | 104.41448 | 37841 ft | 471 kts | 289° |
| 2026-05-05 10:25 | 19.18288 | 104.34913 | 37850 ft | 471 kts | 289° |
| 2026-05-05 10:25 | 19.20482 | 104.28373 | 37843 ft | 472 kts | 289° |
| 2026-05-05 10:26 | 19.22673 | 104.21835 | 37837 ft | 471 kts | 289° |
| 2026-05-05 10:26 | 19.24863 | 104.15292 | 37849 ft | 472 kts | 289° |
| 2026-05-05 10:27 | 19.27050 | 104.08745 | 37844 ft | 472 kts | 289° |
| 2026-05-05 10:27 | 19.29233 | 104.02202 | 37853 ft | 472 kts | 289° |
| 2026-05-05 10:28 | 19.31419 | 103.95635 | 37853 ft | 473 kts | 289° |
| 2026-05-05 10:28 | 19.33593 | 103.89072 | 37855 ft | 473 kts | 289° |
| 2026-05-05 10:29 | 19.35734 | 103.82488 | 37855 ft | 473 kts | 289° |
| 2026-05-05 10:29 | 19.37875 | 103.75896 | 37848 ft | 474 kts | 289° |
| 2026-05-05 10:30 | 19.40022 | 103.69290 | 37860 ft | 474 kts | 289° |
| 2026-05-05 10:30 | 19.42166 | 103.62687 | 37853 ft | 474 kts | 289° |
| 2026-05-05 10:31 | 19.44355 | 103.56087 | 37848 ft | 475 kts | 289° |
| 2026-05-05 10:31 | 19.46598 | 103.49552 | 37853 ft | 475 kts | 290° |
| 2026-05-05 10:32 | 19.48870 | 103.42936 | 37852 ft | 475 kts | 290° |
| 2026-05-05 10:32 | 19.51099 | 103.36390 | 37853 ft | 475 kts | 289° |
| 2026-05-05 10:33 | 19.53334 | 103.29811 | 37852 ft | 474 kts | 289° |
| 2026-05-05 10:33 | 19.55563 | 103.23234 | 37852 ft | 474 kts | 289° |
| 2026-05-05 10:34 | 19.57791 | 103.16650 | 37851 ft | 474 kts | 289° |
| 2026-05-05 10:34 | 19.60013 | 103.10080 | 37851 ft | 474 kts | 289° |
| 2026-05-05 10:35 | 19.62235 | 103.03498 | 37851 ft | 473 kts | 289° |
| 2026-05-05 10:35 | 19.64450 | 102.96927 | 37852 ft | 473 kts | 289° |
| 2026-05-05 10:36 | 19.66664 | 102.90353 | 37851 ft | 473 kts | 289° |
| 2026-05-05 10:36 | 19.68875 | 102.83779 | 37857 ft | 473 kts | 289° |
| 2026-05-05 10:37 | 19.71086 | 102.77195 | 37854 ft | 474 kts | 289° |
| 2026-05-05 10:37 | 19.73297 | 102.70602 | 37857 ft | 474 kts | 289° |
| 2026-05-05 10:38 | 19.75490 | 102.64055 | 37864 ft | 474 kts | 289° |
| 2026-05-05 10:38 | 19.77709 | 102.57418 | 37863 ft | 474 kts | 289° |
| 2026-05-05 10:39 | 19.79915 | 102.50813 | 37868 ft | 474 kts | 289° |
| 2026-05-05 10:39 | 19.82104 | 102.44253 | 37860 ft | 475 kts | 289° |
| 2026-05-05 10:40 | 19.84304 | 102.37647 | 37865 ft | 474 kts | 289° |
| 2026-05-05 10:40 | 19.86502 | 102.31038 | 37868 ft | 474 kts | 289° |
| 2026-05-05 10:41 | 19.88695 | 102.24433 | 37862 ft | 475 kts | 289° |
| 2026-05-05 10:41 | 19.90954 | 102.17844 | 37861 ft | 475 kts | 292° |
| 2026-05-05 10:42 | 19.95659 | 102.08585 | 37860 ft | 476 kts | 300° |
| 2026-05-05 10:43 | 19.98995 | 102.02485 | 37865 ft | 477 kts | 299° |
| 2026-05-05 10:43 | 20.02305 | 101.96372 | 37867 ft | 477 kts | 299° |
| 2026-05-05 10:44 | 20.05040 | 101.91286 | 37859 ft | 477 kts | 299° |
| 2026-05-05 10:44 | 20.08320 | 101.85161 | 37862 ft | 476 kts | 299° |
| 2026-05-05 10:45 | 20.11602 | 101.79034 | 37863 ft | 476 kts | 299° |
| 2026-05-05 10:45 | 20.14878 | 101.72917 | 37864 ft | 476 kts | 299° |
| 2026-05-05 10:46 | 20.18146 | 101.66803 | 37862 ft | 475 kts | 299° |
| 2026-05-05 10:46 | 20.21413 | 101.60686 | 37865 ft | 475 kts | 299° |
| 2026-05-05 10:47 | 20.24669 | 101.54582 | 37867 ft | 474 kts | 299° |
| 2026-05-05 10:47 | 20.27923 | 101.48479 | 37881 ft | 473 kts | 299° |
| 2026-05-05 10:48 | 20.31169 | 101.42382 | 37893 ft | 473 kts | 298° |
| 2026-05-05 10:48 | 20.34409 | 101.36291 | 37883 ft | 472 kts | 298° |
| 2026-05-05 10:49 | 20.37648 | 101.30193 | 37895 ft | 472 kts | 298° |
| 2026-05-05 10:49 | 20.40880 | 101.24102 | 37898 ft | 471 kts | 298° |
| 2026-05-05 10:50 | 20.44101 | 101.18027 | 37903 ft | 471 kts | 298° |
| 2026-05-05 10:50 | 20.47318 | 101.11951 | 37902 ft | 470 kts | 298° |
| 2026-05-05 10:51 | 20.50514 | 101.05908 | 37900 ft | 470 kts | 298° |
| 2026-05-05 10:51 | 20.53742 | 100.99798 | 37901 ft | 470 kts | 298° |
| 2026-05-05 10:52 | 20.56953 | 100.93717 | 37900 ft | 470 kts | 298° |
| 2026-05-05 10:52 | 20.60159 | 100.87637 | 37898 ft | 470 kts | 298° |
| 2026-05-05 10:53 | 20.63362 | 100.81553 | 37893 ft | 470 kts | 298° |
| 2026-05-05 10:53 | 20.66560 | 100.75474 | 37900 ft | 469 kts | 298° |
| 2026-05-05 10:54 | 20.69754 | 100.69399 | 37899 ft | 469 kts | 298° |
| 2026-05-05 10:54 | 20.72945 | 100.63318 | 37896 ft | 469 kts | 298° |
| 2026-05-05 10:55 | 20.76113 | 100.57278 | 37900 ft | 469 kts | 298° |
| 2026-05-05 10:55 | 20.79299 | 100.51194 | 37901 ft | 469 kts | 298° |
| 2026-05-05 10:56 | 20.82113 | 100.44939 | 37898 ft | 468 kts | 290° |
| 2026-05-05 10:56 | 20.84022 | 100.38291 | 37894 ft | 467 kts | 285° |
| 2026-05-05 10:57 | 20.85794 | 100.31606 | 37887 ft | 467 kts | 285° |
| 2026-05-05 10:57 | 20.87579 | 100.24923 | 37883 ft | 467 kts | 286° |
| 2026-05-05 10:58 | 20.89379 | 100.18257 | 37884 ft | 467 kts | 286° |
| 2026-05-05 10:58 | 20.91182 | 100.11588 | 37896 ft | 467 kts | 286° |
| 2026-05-05 10:59 | 20.92987 | 100.04903 | 37892 ft | 467 kts | 286° |
| 2026-05-05 10:59 | 20.94786 | 99.98232 | 37889 ft | 467 kts | 286° |
| 2026-05-05 11:00 | 20.96584 | 99.91546 | 37882 ft | 467 kts | 286° |
| 2026-05-05 11:00 | 20.98380 | 99.84864 | 37875 ft | 467 kts | 286° |
| 2026-05-05 11:01 | 21.00173 | 99.78178 | 37881 ft | 467 kts | 286° |
| 2026-05-05 11:01 | 21.01961 | 99.71496 | 37883 ft | 467 kts | 286° |
| 2026-05-05 11:02 | 21.03744 | 99.64815 | 37876 ft | 467 kts | 286° |
| 2026-05-05 11:02 | 21.05524 | 99.58136 | 37885 ft | 467 kts | 286° |
| 2026-05-05 11:03 | 21.07302 | 99.51457 | 37883 ft | 466 kts | 286° |
| 2026-05-05 11:03 | 21.09064 | 99.44823 | 37874 ft | 467 kts | 286° |
| 2026-05-05 11:04 | 21.10839 | 99.38139 | 37865 ft | 466 kts | 285° |
| 2026-05-05 11:04 | 21.12610 | 99.31453 | 37871 ft | 466 kts | 285° |
| 2026-05-05 11:05 | 21.14377 | 99.24769 | 37866 ft | 466 kts | 285° |
| 2026-05-05 11:05 | 21.16142 | 99.18083 | 37860 ft | 466 kts | 285° |
| 2026-05-05 11:06 | 21.17902 | 99.11405 | 37860 ft | 466 kts | 285° |
| 2026-05-05 11:06 | 21.19661 | 99.04719 | 37849 ft | 466 kts | 285° |
| 2026-05-05 11:07 | 21.21416 | 98.98040 | 37851 ft | 465 kts | 285° |
| 2026-05-05 11:07 | 21.23167 | 98.91361 | 37857 ft | 465 kts | 285° |
| 2026-05-05 11:08 | 21.24914 | 98.84683 | 37850 ft | 465 kts | 285° |
| 2026-05-05 11:08 | 21.26658 | 98.78008 | 37844 ft | 465 kts | 285° |
| 2026-05-05 11:09 | 21.28399 | 98.71332 | 37843 ft | 464 kts | 285° |
| 2026-05-05 11:09 | 21.30134 | 98.64665 | 37834 ft | 464 kts | 285° |
| 2026-05-05 11:10 | 21.31864 | 98.58007 | 37846 ft | 463 kts | 285° |
| 2026-05-05 11:10 | 21.33591 | 98.51350 | 37838 ft | 463 kts | 285° |
| 2026-05-05 11:11 | 21.35314 | 98.44693 | 37836 ft | 463 kts | 285° |
| 2026-05-05 11:11 | 21.37031 | 98.38053 | 37831 ft | 462 kts | 285° |
| 2026-05-05 11:12 | 21.38746 | 98.31409 | 37834 ft | 462 kts | 285° |
| 2026-05-05 11:12 | 21.40457 | 98.24769 | 37834 ft | 461 kts | 285° |
| 2026-05-05 11:13 | 21.42152 | 98.18181 | 37822 ft | 462 kts | 285° |
| 2026-05-05 11:13 | 21.43854 | 98.11543 | 37816 ft | 461 kts | 285° |
| 2026-05-05 11:14 | 21.45554 | 98.04909 | 37808 ft | 461 kts | 285° |
| 2026-05-05 11:14 | 21.47250 | 97.98281 | 37814 ft | 460 kts | 285° |
| 2026-05-05 11:15 | 21.48941 | 97.91655 | 37813 ft | 460 kts | 285° |
| 2026-05-05 11:15 | 21.50629 | 97.85035 | 37816 ft | 460 kts | 285° |
| 2026-05-05 11:16 | 21.52313 | 97.78413 | 37805 ft | 460 kts | 285° |
| 2026-05-05 11:16 | 21.53997 | 97.71781 | 37798 ft | 460 kts | 285° |
| 2026-05-05 11:17 | 21.55678 | 97.65149 | 37798 ft | 460 kts | 285° |
| 2026-05-05 11:17 | 21.57360 | 97.58510 | 37800 ft | 460 kts | 285° |
| 2026-05-05 11:18 | 21.59035 | 97.51884 | 37793 ft | 460 kts | 285° |
| 2026-05-05 11:18 | 21.60706 | 97.45246 | 37784 ft | 460 kts | 285° |
| 2026-05-05 11:19 | 21.62363 | 97.38661 | 37791 ft | 460 kts | 285° |
| 2026-05-05 11:19 | 21.64032 | 97.32026 | 37792 ft | 460 kts | 285° |
| 2026-05-05 11:20 | 21.65697 | 97.25385 | 37785 ft | 461 kts | 285° |
| 2026-05-05 11:20 | 21.67362 | 97.18734 | 37788 ft | 461 kts | 284° |
| 2026-05-05 11:21 | 21.69026 | 97.12078 | 37786 ft | 461 kts | 284° |
| 2026-05-05 11:21 | 21.70688 | 97.05408 | 37786 ft | 462 kts | 284° |
| 2026-05-05 11:22 | 21.72350 | 96.98734 | 37787 ft | 462 kts | 284° |
| 2026-05-05 11:22 | 21.74006 | 96.92070 | 37787 ft | 462 kts | 284° |
| 2026-05-05 11:23 | 21.75662 | 96.85395 | 37790 ft | 462 kts | 284° |
| 2026-05-05 11:23 | 21.77317 | 96.78718 | 37790 ft | 461 kts | 284° |
| 2026-05-05 11:24 | 21.78965 | 96.72045 | 37782 ft | 461 kts | 284° |
| 2026-05-05 11:24 | 21.80609 | 96.65379 | 37792 ft | 460 kts | 284° |
| 2026-05-05 11:25 | 21.82246 | 96.58722 | 37773 ft | 461 kts | 284° |
| 2026-05-05 11:25 | 21.83887 | 96.52055 | 37777 ft | 461 kts | 284° |
| 2026-05-05 11:26 | 21.85513 | 96.45425 | 37780 ft | 460 kts | 284° |
| 2026-05-05 11:26 | 21.87154 | 96.38726 | 37774 ft | 460 kts | 284° |
| 2026-05-05 11:27 | 21.88766 | 96.32120 | 37780 ft | 459 kts | 284° |
| 2026-05-05 11:27 | 21.90391 | 96.25461 | 37777 ft | 459 kts | 284° |
| 2026-05-05 11:28 | 21.92010 | 96.18813 | 37774 ft | 459 kts | 284° |
| 2026-05-05 11:28 | 21.93484 | 96.12140 | 37782 ft | 458 kts | 279° |
| 2026-05-05 11:29 | 21.94158 | 96.05330 | 37781 ft | 457 kts | 275° |
| 2026-05-05 11:29 | 21.94716 | 95.98511 | 37778 ft | 457 kts | 275° |
| 2026-05-05 11:30 | 21.95288 | 95.91697 | 37774 ft | 457 kts | 275° |
| 2026-05-05 11:30 | 21.95873 | 95.84868 | 37779 ft | 457 kts | 275° |
| 2026-05-05 11:31 | 21.96461 | 95.78045 | 37778 ft | 458 kts | 275° |
| 2026-05-05 11:31 | 21.97046 | 95.71212 | 37779 ft | 458 kts | 275° |
| 2026-05-05 11:32 | 21.97629 | 95.64375 | 37779 ft | 459 kts | 275° |
| 2026-05-05 11:32 | 21.98111 | 95.58689 | 37776 ft | 459 kts | 275° |
| 2026-05-05 11:33 | 21.98688 | 95.51845 | 37777 ft | 459 kts | 275° |
| 2026-05-05 11:33 | 21.99264 | 95.44997 | 37777 ft | 459 kts | 275° |
| 2026-05-05 11:34 | 21.99838 | 95.38143 | 37778 ft | 459 kts | 275° |
| 2026-05-05 11:34 | 22.00405 | 95.31291 | 37782 ft | 459 kts | 275° |
| 2026-05-05 11:35 | 22.00971 | 95.24446 | 37786 ft | 458 kts | 275° |
| 2026-05-05 11:35 | 22.01534 | 95.17612 | 37785 ft | 458 kts | 275° |
| 2026-05-05 11:36 | 22.02092 | 95.10787 | 37788 ft | 457 kts | 275° |
| 2026-05-05 11:36 | 22.02647 | 95.03957 | 37786 ft | 457 kts | 275° |
| 2026-05-05 11:37 | 22.03197 | 94.97185 | 37790 ft | 457 kts | 275° |
| 2026-05-05 11:37 | 22.03752 | 94.90318 | 37788 ft | 457 kts | 275° |
| 2026-05-05 11:38 | 22.04296 | 94.83542 | 37788 ft | 457 kts | 274° |
| 2026-05-05 11:38 | 22.04840 | 94.76721 | 37794 ft | 457 kts | 274° |
| 2026-05-05 11:39 | 22.05380 | 94.69899 | 37797 ft | 457 kts | 274° |
| 2026-05-05 11:39 | 22.05918 | 94.63076 | 37794 ft | 457 kts | 274° |
| 2026-05-05 11:40 | 22.06456 | 94.56243 | 37798 ft | 457 kts | 274° |
| 2026-05-05 11:40 | 22.06989 | 94.49416 | 37806 ft | 457 kts | 274° |
| 2026-05-05 11:41 | 22.07520 | 94.42581 | 37803 ft | 457 kts | 274° |
| 2026-05-05 11:41 | 22.08048 | 94.35739 | 37804 ft | 458 kts | 274° |
| 2026-05-05 11:42 | 22.08572 | 94.28894 | 37810 ft | 459 kts | 274° |
| 2026-05-05 11:42 | 22.09097 | 94.22037 | 37816 ft | 459 kts | 274° |
| 2026-05-05 11:43 | 22.09619 | 94.15177 | 37814 ft | 459 kts | 274° |
| 2026-05-05 11:43 | 22.10136 | 94.08315 | 37814 ft | 459 kts | 274° |
| 2026-05-05 11:44 | 22.10653 | 94.01449 | 37813 ft | 459 kts | 274° |
| 2026-05-05 11:44 | 22.11167 | 93.94586 | 37803 ft | 459 kts | 274° |
| 2026-05-05 11:45 | 22.11677 | 93.87728 | 37802 ft | 459 kts | 274° |
| 2026-05-05 11:45 | 22.12181 | 93.80875 | 37827 ft | 458 kts | 274° |
| 2026-05-05 11:46 | 22.12683 | 93.74031 | 37830 ft | 458 kts | 274° |
| 2026-05-05 11:46 | 22.13184 | 93.67171 | 37893 ft | 460 kts | 274° |
| 2026-05-05 11:46 | 22.13435 | 93.63732 | 38124 ft | 461 kts | 274° |
| 2026-05-05 11:47 | 22.13684 | 93.60298 | 38532 ft | 458 kts | 274° |
| 2026-05-05 11:47 | 22.13931 | 93.56886 | 38864 ft | 456 kts | 274° |
| 2026-05-05 11:47 | 22.14177 | 93.53480 | 39139 ft | 456 kts | 274° |
| 2026-05-05 11:47 | 22.14422 | 93.50064 | 39340 ft | 457 kts | 274° |
| 2026-05-05 11:48 | 22.14911 | 93.43220 | 39783 ft | 457 kts | 274° |
| 2026-05-05 11:48 | 22.15399 | 93.36365 | 39840 ft | 457 kts | 274° |
| 2026-05-05 11:49 | 22.15876 | 93.29617 | 39844 ft | 452 kts | 274° |
| 2026-05-05 11:49 | 22.16351 | 93.22878 | 39844 ft | 449 kts | 274° |
| 2026-05-05 11:50 | 22.16818 | 93.16173 | 39845 ft | 448 kts | 274° |
| 2026-05-05 11:50 | 22.17284 | 93.09470 | 39849 ft | 448 kts | 274° |
| 2026-05-05 11:51 | 22.17748 | 93.02760 | 39837 ft | 449 kts | 273° |
| 2026-05-05 11:51 | 22.18208 | 92.96048 | 39849 ft | 449 kts | 273° |
| 2026-05-05 11:52 | 22.18666 | 92.89312 | 39829 ft | 451 kts | 273° |
| 2026-05-05 11:52 | 22.19124 | 92.82565 | 39836 ft | 452 kts | 273° |
| 2026-05-05 11:53 | 22.19581 | 92.75783 | 39836 ft | 454 kts | 273° |
| 2026-05-05 11:53 | 22.20036 | 92.68991 | 39838 ft | 454 kts | 273° |
| 2026-05-05 11:54 | 22.20482 | 92.62187 | 39831 ft | 455 kts | 273° |
| 2026-05-05 11:54 | 22.20900 | 92.55378 | 39832 ft | 455 kts | 273° |
| 2026-05-05 11:55 | 22.21310 | 92.48569 | 39826 ft | 455 kts | 273° |
| 2026-05-05 11:55 | 22.21721 | 92.41758 | 39829 ft | 455 kts | 273° |
| 2026-05-05 11:56 | 22.22130 | 92.34948 | 39831 ft | 455 kts | 273° |
| 2026-05-05 11:56 | 22.22537 | 92.28148 | 39832 ft | 454 kts | 273° |
| 2026-05-05 11:57 | 22.22996 | 92.21340 | 39832 ft | 454 kts | 274° |
| 2026-05-05 11:57 | 22.23503 | 92.14551 | 39830 ft | 454 kts | 274° |
| 2026-05-05 11:58 | 22.24001 | 92.07750 | 39841 ft | 454 kts | 274° |
| 2026-05-05 11:58 | 22.24489 | 92.00947 | 39830 ft | 455 kts | 274° |
| 2026-05-05 11:59 | 22.24971 | 91.94145 | 39834 ft | 455 kts | 274° |
| 2026-05-05 11:59 | 22.25453 | 91.87338 | 39830 ft | 455 kts | 273° |
| 2026-05-05 12:00 | 22.25951 | 91.80580 | 39832 ft | 455 kts | 275° |
| 2026-05-05 12:00 | 22.26735 | 91.73802 | 39831 ft | 455 kts | 276° |
| 2026-05-05 12:01 | 22.27582 | 91.67025 | 39835 ft | 455 kts | 276° |
| 2026-05-05 12:01 | 22.28383 | 91.60250 | 39837 ft | 455 kts | 276° |
| 2026-05-05 12:02 | 22.29159 | 91.53472 | 39837 ft | 455 kts | 276° |
| 2026-05-05 12:02 | 22.29933 | 91.46694 | 39832 ft | 455 kts | 276° |
| 2026-05-05 12:03 | 22.30707 | 91.39909 | 39830 ft | 455 kts | 276° |
| 2026-05-05 12:03 | 22.31504 | 91.33147 | 39834 ft | 454 kts | 276° |
| 2026-05-05 12:04 | 22.32348 | 91.26396 | 39829 ft | 453 kts | 276° |
| 2026-05-05 12:04 | 22.33193 | 91.19655 | 39833 ft | 452 kts | 276° |
| 2026-05-05 12:05 | 22.34027 | 91.12929 | 39838 ft | 452 kts | 276° |
| 2026-05-05 12:05 | 22.34854 | 91.06203 | 39829 ft | 451 kts | 276° |
| 2026-05-05 12:06 | 22.35669 | 90.99527 | 39830 ft | 451 kts | 276° |
| 2026-05-05 12:06 | 22.36487 | 90.92816 | 39832 ft | 450 kts | 276° |
| 2026-05-05 12:07 | 22.37302 | 90.86105 | 39834 ft | 450 kts | 276° |
| 2026-05-05 12:07 | 22.38115 | 90.79387 | 39833 ft | 450 kts | 276° |
| 2026-05-05 12:08 | 22.38924 | 90.72681 | 39836 ft | 450 kts | 276° |
| 2026-05-05 12:08 | 22.39731 | 90.65974 | 39831 ft | 450 kts | 276° |
| 2026-05-05 12:09 | 22.40534 | 90.59272 | 39838 ft | 450 kts | 276° |
| 2026-05-05 12:09 | 22.41333 | 90.52559 | 39841 ft | 450 kts | 276° |
| 2026-05-05 12:10 | 22.42131 | 90.45845 | 39839 ft | 451 kts | 276° |
| 2026-05-05 12:10 | 22.42928 | 90.39127 | 39846 ft | 451 kts | 276° |
| 2026-05-05 12:11 | 22.43724 | 90.32397 | 39847 ft | 452 kts | 275° |
| 2026-05-05 12:11 | 22.44516 | 90.25657 | 39846 ft | 452 kts | 276° |
| 2026-05-05 12:12 | 22.45306 | 90.18920 | 39843 ft | 452 kts | 275° |
| 2026-05-05 12:12 | 22.46093 | 90.12180 | 39838 ft | 453 kts | 275° |
| 2026-05-05 12:13 | 22.46879 | 90.05425 | 39843 ft | 453 kts | 275° |
| 2026-05-05 12:13 | 22.47661 | 89.98670 | 39833 ft | 452 kts | 275° |
| 2026-05-05 12:14 | 22.48434 | 89.91969 | 39839 ft | 452 kts | 275° |
| 2026-05-05 12:14 | 22.49209 | 89.85226 | 39830 ft | 452 kts | 275° |
| 2026-05-05 12:15 | 22.49985 | 89.78477 | 39837 ft | 452 kts | 275° |
| 2026-05-05 12:15 | 22.50756 | 89.71728 | 39832 ft | 452 kts | 275° |
| 2026-05-05 12:16 | 22.51523 | 89.64978 | 39839 ft | 452 kts | 275° |
| 2026-05-05 12:16 | 22.52289 | 89.58234 | 39840 ft | 452 kts | 275° |
| 2026-05-05 12:17 | 22.53050 | 89.51495 | 39830 ft | 451 kts | 275° |
| 2026-05-05 12:17 | 22.53808 | 89.44752 | 39840 ft | 452 kts | 275° |
| 2026-05-05 12:18 | 22.54562 | 89.38011 | 39835 ft | 452 kts | 275° |
| 2026-05-05 12:18 | 22.55317 | 89.31263 | 39837 ft | 452 kts | 275° |
| 2026-05-05 12:19 | 22.56067 | 89.24511 | 39832 ft | 452 kts | 275° |
| 2026-05-05 12:19 | 22.56813 | 89.17765 | 39830 ft | 452 kts | 275° |
| 2026-05-05 12:20 | 22.57558 | 89.11019 | 39835 ft | 452 kts | 275° |
| 2026-05-05 12:20 | 22.58301 | 89.04257 | 39836 ft | 452 kts | 275° |
| 2026-05-05 12:21 | 22.58916 | 88.98640 | 39832 ft | 453 kts | 275° |
| 2026-05-05 12:21 | 22.59744 | 88.91886 | 39831 ft | 453 kts | 277° |
| 2026-05-05 12:22 | 22.60297 | 88.88526 | 39831 ft | 454 kts | 278° |
| 2026-05-05 12:22 | 22.60947 | 88.84751 | 39830 ft | 454 kts | 278° |
| 2026-05-05 12:23 | 22.62105 | 88.78035 | 39831 ft | 454 kts | 278° |
| 2026-05-05 12:23 | 22.63242 | 88.71305 | 39831 ft | 454 kts | 278° |
| 2026-05-05 12:24 | 22.64363 | 88.64591 | 39831 ft | 454 kts | 278° |
| 2026-05-05 12:24 | 22.65484 | 88.57856 | 39830 ft | 454 kts | 278° |
| 2026-05-05 12:25 | 22.66594 | 88.51175 | 39832 ft | 454 kts | 278° |
| 2026-05-05 12:25 | 22.67673 | 88.44403 | 39830 ft | 453 kts | 275° |
| 2026-05-05 12:26 | 22.68190 | 88.37629 | 39841 ft | 451 kts | 272° |
| 2026-05-05 12:26 | 22.68605 | 88.30894 | 39833 ft | 452 kts | 272° |
| 2026-05-05 12:27 | 22.69032 | 88.24098 | 39832 ft | 453 kts | 272° |
| 2026-05-05 12:27 | 22.69474 | 88.17298 | 39831 ft | 453 kts | 272° |
| 2026-05-05 12:28 | 22.69919 | 88.10490 | 39832 ft | 453 kts | 272° |
| 2026-05-05 12:28 | 22.70363 | 88.03677 | 39834 ft | 454 kts | 272° |
| 2026-05-05 12:29 | 22.70802 | 87.96859 | 39831 ft | 454 kts | 272° |
| 2026-05-05 12:29 | 22.71236 | 87.90040 | 39833 ft | 454 kts | 272° |
| 2026-05-05 12:30 | 22.71672 | 87.83221 | 39836 ft | 453 kts | 272° |
| 2026-05-05 12:30 | 22.72103 | 87.76408 | 39833 ft | 453 kts | 272° |
| 2026-05-05 12:31 | 22.72529 | 87.69609 | 39831 ft | 452 kts | 272° |
| 2026-05-05 12:31 | 22.72952 | 87.62819 | 39830 ft | 452 kts | 272° |
| 2026-05-05 12:32 | 22.73372 | 87.56032 | 39841 ft | 451 kts | 272° |
| 2026-05-05 12:32 | 22.73786 | 87.49306 | 39835 ft | 451 kts | 272° |
| 2026-05-05 12:33 | 22.74198 | 87.42533 | 39831 ft | 450 kts | 272° |
| 2026-05-05 12:33 | 22.74609 | 87.35768 | 39834 ft | 450 kts | 271° |
| 2026-05-05 12:34 | 22.75016 | 87.29000 | 39833 ft | 450 kts | 271° |
| 2026-05-05 12:34 | 22.75420 | 87.22239 | 39831 ft | 450 kts | 271° |
| 2026-05-05 12:35 | 22.75821 | 87.15473 | 39836 ft | 450 kts | 271° |
| 2026-05-05 12:35 | 22.76220 | 87.08716 | 39840 ft | 449 kts | 271° |
| 2026-05-05 12:36 | 22.76615 | 87.01954 | 39830 ft | 449 kts | 271° |
| 2026-05-05 12:36 | 22.77006 | 86.95216 | 39832 ft | 448 kts | 271° |
| 2026-05-05 12:37 | 22.77395 | 86.88478 | 39830 ft | 447 kts | 271° |
| 2026-05-05 12:37 | 22.77780 | 86.81749 | 39832 ft | 447 kts | 271° |
| 2026-05-05 12:38 | 22.78162 | 86.75034 | 39837 ft | 447 kts | 271° |
| 2026-05-05 12:38 | 22.78541 | 86.68313 | 39837 ft | 447 kts | 271° |
| 2026-05-05 12:39 | 22.78916 | 86.61599 | 39836 ft | 447 kts | 271° |
| 2026-05-05 12:39 | 22.79289 | 86.54884 | 39830 ft | 447 kts | 271° |
| 2026-05-05 12:40 | 22.79660 | 86.48160 | 39831 ft | 447 kts | 271° |
| 2026-05-05 12:40 | 22.80028 | 86.41429 | 39833 ft | 447 kts | 271° |
| 2026-05-05 12:41 | 22.80394 | 86.34706 | 39846 ft | 447 kts | 271° |
| 2026-05-05 12:41 | 22.80753 | 86.28016 | 39829 ft | 447 kts | 271° |
| 2026-05-05 12:42 | 22.81260 | 86.21301 | 39834 ft | 449 kts | 278° |
| 2026-05-05 12:42 | 22.83123 | 86.14810 | 39839 ft | 454 kts | 289° |
| 2026-05-05 12:43 | 22.86203 | 86.08803 | 39849 ft | 459 kts | 298° |
| 2026-05-05 12:43 | 22.89699 | 86.02995 | 39828 ft | 460 kts | 298° |
| 2026-05-05 12:44 | 22.93188 | 85.97178 | 39840 ft | 460 kts | 298° |
| 2026-05-05 12:44 | 22.96632 | 85.91343 | 39842 ft | 459 kts | 298° |
| 2026-05-05 12:45 | 23.00052 | 85.85502 | 39850 ft | 458 kts | 298° |
| 2026-05-05 12:45 | 23.03467 | 85.79658 | 39853 ft | 458 kts | 298° |
| 2026-05-05 12:46 | 23.06880 | 85.73815 | 39866 ft | 458 kts | 298° |
| 2026-05-05 12:46 | 23.10284 | 85.67984 | 39879 ft | 458 kts | 298° |
| 2026-05-05 12:47 | 23.13697 | 85.62132 | 39892 ft | 458 kts | 298° |
| 2026-05-05 12:47 | 23.17098 | 85.56291 | 39911 ft | 458 kts | 297° |
| 2026-05-05 12:48 | 23.20476 | 85.50482 | 39921 ft | 457 kts | 297° |
| 2026-05-05 12:48 | 23.23898 | 85.44594 | 39924 ft | 457 kts | 297° |
| 2026-05-05 12:49 | 23.27267 | 85.38788 | 39935 ft | 457 kts | 297° |
| 2026-05-05 12:49 | 23.30653 | 85.32926 | 39934 ft | 457 kts | 296° |
| 2026-05-05 12:50 | 23.33638 | 85.26868 | 39941 ft | 454 kts | 293° |
| 2026-05-05 12:50 | 23.36509 | 85.20747 | 39936 ft | 454 kts | 293° |
| 2026-05-05 12:51 | 23.39383 | 85.14622 | 39934 ft | 454 kts | 293° |
| 2026-05-05 12:51 | 23.42273 | 85.08493 | 39932 ft | 455 kts | 293° |
| 2026-05-05 12:52 | 23.45164 | 85.02374 | 39935 ft | 455 kts | 293° |
| 2026-05-05 12:52 | 23.48057 | 84.96245 | 39926 ft | 455 kts | 293° |
| 2026-05-05 12:53 | 23.50947 | 84.90113 | 39923 ft | 455 kts | 293° |
| 2026-05-05 12:53 | 23.53832 | 84.83982 | 39914 ft | 454 kts | 293° |
| 2026-05-05 12:54 | 23.58146 | 84.74800 | 39911 ft | 453 kts | 292° |
| 2026-05-05 12:55 | 23.60989 | 84.68735 | 39901 ft | 452 kts | 292° |
| 2026-05-05 12:55 | 23.63854 | 84.62621 | 39900 ft | 452 kts | 292° |
| 2026-05-05 12:56 | 23.66730 | 84.56473 | 39896 ft | 452 kts | 292° |
| 2026-05-05 12:56 | 23.69558 | 84.50420 | 39889 ft | 451 kts | 292° |
| 2026-05-05 12:57 | 23.72400 | 84.44326 | 39884 ft | 450 kts | 292° |
| 2026-05-05 12:57 | 23.75239 | 84.38237 | 39878 ft | 449 kts | 292° |
| 2026-05-05 12:58 | 23.78070 | 84.32155 | 39881 ft | 449 kts | 292° |
| 2026-05-05 12:58 | 23.80897 | 84.26075 | 39869 ft | 449 kts | 292° |
| 2026-05-05 12:59 | 23.83714 | 84.20006 | 39872 ft | 448 kts | 292° |
| 2026-05-05 12:59 | 23.86529 | 84.13934 | 39871 ft | 448 kts | 292° |
| 2026-05-05 13:00 | 23.90745 | 84.04825 | 39860 ft | 447 kts | 292° |
| 2026-05-05 13:01 | 23.96351 | 83.92689 | 39861 ft | 447 kts | 292° |
| 2026-05-05 13:01 | 23.99238 | 83.86656 | 39853 ft | 451 kts | 298° |
| 2026-05-05 13:02 | 24.03397 | 83.81421 | 39859 ft | 462 kts | 311° |
| 2026-05-05 13:02 | 24.08692 | 83.77281 | 39850 ft | 473 kts | 322° |
| 2026-05-05 13:03 | 24.14334 | 83.73643 | 39851 ft | 474 kts | 323° |
| 2026-05-05 13:03 | 24.20018 | 83.69988 | 39841 ft | 474 kts | 322° |
| 2026-05-05 13:04 | 24.25679 | 83.66273 | 39848 ft | 474 kts | 322° |
| 2026-05-05 13:04 | 24.31318 | 83.62533 | 39847 ft | 475 kts | 322° |
| 2026-05-05 13:05 | 24.36973 | 83.58773 | 39840 ft | 475 kts | 322° |
| 2026-05-05 13:05 | 24.42632 | 83.55007 | 39834 ft | 476 kts | 322° |
| 2026-05-05 13:06 | 24.48293 | 83.51238 | 39831 ft | 476 kts | 322° |
| 2026-05-05 13:06 | 24.53957 | 83.47466 | 39836 ft | 476 kts | 322° |
| 2026-05-05 13:07 | 24.59606 | 83.43700 | 39834 ft | 476 kts | 322° |
| 2026-05-05 13:07 | 24.65264 | 83.39924 | 39826 ft | 475 kts | 322° |
| 2026-05-05 13:08 | 24.70908 | 83.36150 | 39822 ft | 475 kts | 322° |
| 2026-05-05 13:08 | 24.76548 | 83.32375 | 39822 ft | 475 kts | 322° |
| 2026-05-05 13:09 | 24.82193 | 83.28593 | 39807 ft | 475 kts | 322° |
| 2026-05-05 13:09 | 24.87835 | 83.24805 | 39803 ft | 475 kts | 322° |
| 2026-05-05 13:10 | 24.93482 | 83.21018 | 39806 ft | 475 kts | 322° |
| 2026-05-05 13:10 | 24.99123 | 83.17228 | 39806 ft | 475 kts | 322° |
| 2026-05-05 13:11 | 25.04762 | 83.13434 | 39808 ft | 475 kts | 322° |
| 2026-05-05 13:11 | 25.10392 | 83.09641 | 39802 ft | 475 kts | 322° |
| 2026-05-05 13:12 | 25.15996 | 83.05863 | 39805 ft | 474 kts | 322° |
| 2026-05-05 13:12 | 25.20709 | 83.02681 | 39805 ft | 474 kts | 322° |
| 2026-05-05 13:13 | 25.27257 | 82.98257 | 39807 ft | 475 kts | 322° |
| 2026-05-05 13:13 | 25.31978 | 82.95063 | 39805 ft | 475 kts | 322° |
| 2026-05-05 13:14 | 25.37609 | 82.91249 | 39805 ft | 475 kts | 322° |
| 2026-05-05 13:14 | 25.43117 | 82.87253 | 39806 ft | 469 kts | 315° |
| 2026-05-05 13:15 | 25.47785 | 82.82392 | 39806 ft | 461 kts | 306° |
| 2026-05-05 13:15 | 25.51703 | 82.76856 | 39809 ft | 456 kts | 301° |
| 2026-05-05 13:16 | 25.55466 | 82.71201 | 39805 ft | 457 kts | 301° |
| 2026-05-05 13:16 | 25.59255 | 82.65520 | 39806 ft | 458 kts | 301° |
| 2026-05-05 13:17 | 25.63066 | 82.59851 | 39806 ft | 459 kts | 301° |
| 2026-05-05 13:17 | 25.66889 | 82.54177 | 39806 ft | 459 kts | 301° |
| 2026-05-05 13:18 | 25.70713 | 82.48500 | 39806 ft | 460 kts | 301° |
| 2026-05-05 13:18 | 25.74545 | 82.42801 | 39805 ft | 461 kts | 301° |
| 2026-05-05 13:19 | 25.78368 | 82.37106 | 39807 ft | 461 kts | 301° |
| 2026-05-05 13:19 | 25.82194 | 82.31400 | 39804 ft | 460 kts | 301° |
| 2026-05-05 13:20 | 25.86012 | 82.25700 | 39802 ft | 460 kts | 301° |
| 2026-05-05 13:20 | 25.89831 | 82.19990 | 39806 ft | 460 kts | 301° |
| 2026-05-05 13:21 | 25.93637 | 82.14293 | 39805 ft | 460 kts | 301° |
| 2026-05-05 13:21 | 25.97455 | 82.08570 | 39807 ft | 460 kts | 301° |
| 2026-05-05 13:22 | 26.01266 | 82.02852 | 39805 ft | 460 kts | 301° |
| 2026-05-05 13:22 | 26.05076 | 81.97126 | 39806 ft | 461 kts | 301° |
| 2026-05-05 13:23 | 26.08884 | 81.91397 | 39804 ft | 461 kts | 301° |
| 2026-05-05 13:23 | 26.12694 | 81.85659 | 39806 ft | 461 kts | 301° |
| 2026-05-05 13:24 | 26.16504 | 81.79914 | 39805 ft | 461 kts | 301° |
| 2026-05-05 13:24 | 26.20312 | 81.74164 | 39805 ft | 461 kts | 301° |
| 2026-05-05 13:25 | 26.24113 | 81.68416 | 39804 ft | 461 kts | 301° |
| 2026-05-05 13:25 | 26.27914 | 81.62664 | 39806 ft | 461 kts | 301° |
| 2026-05-05 13:26 | 26.31706 | 81.56917 | 39828 ft | 460 kts | 301° |
| 2026-05-05 13:26 | 26.35471 | 81.51203 | 39810 ft | 460 kts | 301° |
| 2026-05-05 13:27 | 26.39253 | 81.45457 | 39808 ft | 460 kts | 301° |
| 2026-05-05 13:27 | 26.43030 | 81.39710 | 39825 ft | 459 kts | 301° |
| 2026-05-05 13:28 | 26.46804 | 81.33959 | 39810 ft | 460 kts | 301° |
| 2026-05-05 13:28 | 26.50581 | 81.28200 | 39831 ft | 459 kts | 301° |
| 2026-05-05 13:29 | 26.54348 | 81.22447 | 39824 ft | 459 kts | 301° |
| 2026-05-05 13:29 | 26.58115 | 81.16686 | 39827 ft | 459 kts | 301° |
| 2026-05-05 13:30 | 26.61877 | 81.10928 | 39828 ft | 459 kts | 301° |
| 2026-05-05 13:30 | 26.65634 | 81.05166 | 39818 ft | 459 kts | 301° |
| 2026-05-05 13:31 | 26.69386 | 80.99405 | 39835 ft | 458 kts | 301° |
| 2026-05-05 13:31 | 26.73136 | 80.93640 | 39832 ft | 458 kts | 301° |
| 2026-05-05 13:32 | 26.76963 | 80.87936 | 39837 ft | 460 kts | 304° |
| 2026-05-05 13:32 | 26.81130 | 80.82469 | 39839 ft | 461 kts | 306° |
| 2026-05-05 13:33 | 26.85329 | 80.77040 | 39828 ft | 462 kts | 306° |
| 2026-05-05 13:33 | 26.89516 | 80.71586 | 39826 ft | 461 kts | 305° |
| 2026-05-05 13:34 | 26.93684 | 80.66125 | 39828 ft | 461 kts | 305° |
| 2026-05-05 13:34 | 26.97847 | 80.60659 | 39826 ft | 461 kts | 305° |
| 2026-05-05 13:35 | 27.01980 | 80.55223 | 39837 ft | 461 kts | 305° |
| 2026-05-05 13:35 | 27.06136 | 80.49751 | 39840 ft | 461 kts | 305° |
| 2026-05-05 13:36 | 27.10297 | 80.44271 | 39836 ft | 461 kts | 305° |
| 2026-05-05 13:36 | 27.14451 | 80.38789 | 39824 ft | 461 kts | 305° |
| 2026-05-05 13:37 | 27.18601 | 80.33304 | 39838 ft | 461 kts | 305° |
| 2026-05-05 13:37 | 27.22749 | 80.27816 | 39842 ft | 461 kts | 305° |
| 2026-05-05 13:38 | 27.26896 | 80.22323 | 39842 ft | 461 kts | 305° |
| 2026-05-05 13:38 | 27.31041 | 80.16825 | 39844 ft | 461 kts | 305° |
| 2026-05-05 13:39 | 27.35183 | 80.11324 | 39843 ft | 460 kts | 305° |
| 2026-05-05 13:39 | 27.39315 | 80.05830 | 39837 ft | 460 kts | 305° |
| 2026-05-05 13:40 | 27.43444 | 80.00333 | 39849 ft | 460 kts | 305° |
| 2026-05-05 13:40 | 27.47565 | 79.94840 | 39855 ft | 459 kts | 305° |
| 2026-05-05 13:41 | 27.51682 | 79.89342 | 39849 ft | 458 kts | 305° |
| 2026-05-05 13:41 | 27.55787 | 79.83855 | 39851 ft | 458 kts | 305° |
| 2026-05-05 13:42 | 27.59893 | 79.78360 | 39852 ft | 458 kts | 305° |
| 2026-05-05 13:42 | 27.63998 | 79.72858 | 39853 ft | 458 kts | 305° |
| 2026-05-05 13:43 | 27.68094 | 79.67363 | 39862 ft | 458 kts | 305° |
| 2026-05-05 13:43 | 27.71954 | 79.61694 | 39872 ft | 453 kts | 300° |
| 2026-05-05 13:44 | 27.75377 | 79.55734 | 39870 ft | 452 kts | 298° |
| 2026-05-05 13:44 | 27.78776 | 79.49761 | 39871 ft | 453 kts | 298° |
| 2026-05-05 13:45 | 27.82238 | 79.43807 | 39871 ft | 453 kts | 299° |
| 2026-05-05 13:45 | 27.85726 | 79.37865 | 39866 ft | 454 kts | 299° |
| 2026-05-05 13:46 | 27.89213 | 79.31926 | 39861 ft | 454 kts | 299° |
| 2026-05-05 13:46 | 27.92673 | 79.26016 | 39859 ft | 453 kts | 299° |
| 2026-05-05 13:47 | 27.96149 | 79.20066 | 39862 ft | 453 kts | 299° |
| 2026-05-05 13:47 | 27.99642 | 79.14083 | 39860 ft | 451 kts | 299° |
| 2026-05-05 13:48 | 28.03018 | 79.08297 | 39219 ft | 440 kts | 299° |
| 2026-05-05 13:48 | 28.04696 | 79.05413 | 38536 ft | 438 kts | 299° |
| 2026-05-05 13:48 | 28.06369 | 79.02533 | 37734 ft | 438 kts | 299° |
| 2026-05-05 13:49 | 28.08049 | 78.99641 | 36884 ft | 439 kts | 299° |
| 2026-05-05 13:49 | 28.09728 | 78.96752 | 36021 ft | 441 kts | 300° |
| 2026-05-05 13:49 | 28.11356 | 78.93799 | 34989 ft | 443 kts | 296° |
| 2026-05-05 13:49 | 28.12802 | 78.90690 | 33823 ft | 449 kts | 293° |
| 2026-05-05 13:50 | 28.14165 | 78.87478 | 32670 ft | 456 kts | 292° |
| 2026-05-05 13:50 | 28.15524 | 78.84182 | 31465 ft | 468 kts | 292° |
| 2026-05-05 13:50 | 28.16920 | 78.80815 | 30471 ft | 474 kts | 293° |
| 2026-05-05 13:50 | 28.18341 | 78.77438 | 29541 ft | 473 kts | 294° |
| 2026-05-05 13:51 | 28.19768 | 78.74097 | 28638 ft | 468 kts | 294° |
| 2026-05-05 13:51 | 28.21188 | 78.70806 | 27762 ft | 463 kts | 294° |
| 2026-05-05 13:51 | 28.22604 | 78.67543 | 26915 ft | 458 kts | 294° |
| 2026-05-05 13:51 | 28.24004 | 78.64318 | 26083 ft | 454 kts | 294° |
| 2026-05-05 13:52 | 28.25388 | 78.61127 | 25261 ft | 449 kts | 295° |
| 2026-05-05 13:52 | 28.26756 | 78.57966 | 24459 ft | 445 kts | 295° |
| 2026-05-05 13:52 | 28.28112 | 78.54828 | 23662 ft | 441 kts | 295° |
| 2026-05-05 13:52 | 28.29456 | 78.51715 | 22881 ft | 437 kts | 295° |
| 2026-05-05 13:53 | 28.30788 | 78.48626 | 22116 ft | 434 kts | 295° |
| 2026-05-05 13:53 | 28.32105 | 78.45569 | 21368 ft | 429 kts | 295° |
| 2026-05-05 13:53 | 28.33407 | 78.42545 | 20634 ft | 426 kts | 295° |
| 2026-05-05 13:53 | 28.34702 | 78.39534 | 19910 ft | 422 kts | 295° |
| 2026-05-05 13:54 | 28.35982 | 78.36556 | 19197 ft | 419 kts | 295° |
| 2026-05-05 13:54 | 28.37254 | 78.33594 | 18489 ft | 416 kts | 295° |
| 2026-05-05 13:54 | 28.38517 | 78.30652 | 17779 ft | 413 kts | 295° |
| 2026-05-05 13:54 | 28.39769 | 78.27732 | 17079 ft | 409 kts | 295° |
| 2026-05-05 13:55 | 28.41008 | 78.24839 | 16388 ft | 406 kts | 295° |
| 2026-05-05 13:55 | 28.42239 | 78.21964 | 15684 ft | 403 kts | 295° |
| 2026-05-05 13:55 | 28.43459 | 78.19111 | 14993 ft | 400 kts | 295° |
| 2026-05-05 13:55 | 28.44468 | 78.16169 | 14322 ft | 400 kts | 285° |
| 2026-05-05 13:56 | 28.45082 | 78.13089 | 13935 ft | 399 kts | 279° |
| 2026-05-05 13:56 | 28.45406 | 78.09983 | 13683 ft | 394 kts | 273° |
| 2026-05-05 13:56 | 28.45570 | 78.06886 | 13401 ft | 391 kts | 272° |
| 2026-05-05 13:56 | 28.45727 | 78.03798 | 12767 ft | 392 kts | 272° |
| 2026-05-05 13:57 | 28.45883 | 78.00719 | 12095 ft | 389 kts | 272° |
| 2026-05-05 13:57 | 28.46041 | 77.97675 | 11429 ft | 384 kts | 272° |
| 2026-05-05 13:57 | 28.46200 | 77.94660 | 10798 ft | 379 kts | 272° |
| 2026-05-05 13:57 | 28.46356 | 77.91740 | 10638 ft | 361 kts | 272° |
| 2026-05-05 13:58 | 28.46507 | 77.88958 | 10473 ft | 345 kts | 272° |
| 2026-05-05 13:58 | 28.46650 | 77.86290 | 10325 ft | 330 kts | 272° |
| 2026-05-05 13:58 | 28.46788 | 77.83775 | 10190 ft | 317 kts | 272° |
| 2026-05-05 13:58 | 28.46918 | 77.81336 | 10068 ft | 303 kts | 272° |
| 2026-05-05 13:59 | 28.47162 | 77.76745 | 9722 ft | 282 kts | 272° |
| 2026-05-05 13:59 | 28.47280 | 77.74543 | 9414 ft | 277 kts | 272° |
| 2026-05-05 14:00 | 28.47504 | 77.70237 | 8786 ft | 268 kts | 272° |
| 2026-05-05 14:00 | 28.47577 | 77.68842 | 8570 ft | 266 kts | 272° |
| 2026-05-05 14:00 | 28.47721 | 77.66072 | 8173 ft | 260 kts | 272° |
| 2026-05-05 14:00 | 28.47827 | 77.64038 | 7875 ft | 257 kts | 272° |
| 2026-05-05 14:01 | 28.47933 | 77.62002 | 7585 ft | 260 kts | 272° |
| 2026-05-05 14:01 | 28.48040 | 77.59929 | 7319 ft | 265 kts | 272° |
| 2026-05-05 14:01 | 28.48111 | 77.58542 | 7159 ft | 264 kts | 272° |
| 2026-05-05 14:01 | 28.48252 | 77.55798 | 6766 ft | 256 kts | 272° |
| 2026-05-05 14:02 | 28.48321 | 77.54463 | 6571 ft | 252 kts | 272° |
| 2026-05-05 14:02 | 28.48459 | 77.51826 | 6198 ft | 252 kts | 272° |
| 2026-05-05 14:02 | 28.48527 | 77.50498 | 6015 ft | 256 kts | 272° |
| 2026-05-05 14:02 | 28.48631 | 77.48467 | 5724 ft | 259 kts | 272° |
| 2026-05-05 14:03 | 28.48734 | 77.46426 | 5421 ft | 256 kts | 272° |
| 2026-05-05 14:03 | 28.48834 | 77.44433 | 5204 ft | 248 kts | 273° |
| 2026-05-05 14:03 | 28.48935 | 77.42492 | 5075 ft | 244 kts | 273° |
| 2026-05-05 14:03 | 28.49028 | 77.40634 | 4943 ft | 239 kts | 273° |
| 2026-05-05 14:04 | 28.49121 | 77.38795 | 4793 ft | 228 kts | 273° |
| 2026-05-05 14:04 | 28.49209 | 77.37067 | 4637 ft | 218 kts | 273° |
| 2026-05-05 14:04 | 28.49294 | 77.35358 | 4520 ft | 214 kts | 273° |
| 2026-05-05 14:04 | 28.49379 | 77.33670 | 4383 ft | 214 kts | 273° |
| 2026-05-05 14:05 | 28.49461 | 77.32017 | 4274 ft | 203 kts | 274° |
| 2026-05-05 14:05 | 28.49625 | 77.30478 | 4196 ft | 193 kts | 281° |
| 2026-05-05 14:05 | 28.49912 | 77.29002 | 4106 ft | 190 kts | 283° |
| 2026-05-05 14:05 | 28.50227 | 77.27528 | 3907 ft | 195 kts | 284° |
| 2026-05-05 14:06 | 28.50550 | 77.26023 | 3661 ft | 196 kts | 283° |
| 2026-05-05 14:06 | 28.50862 | 77.24559 | 3395 ft | 183 kts | 284° |
| 2026-05-05 14:06 | 28.51151 | 77.23211 | 3180 ft | 168 kts | 284° |
| 2026-05-05 14:06 | 28.51414 | 77.21979 | 2968 ft | 154 kts | 284° |
| 2026-05-05 14:07 | 28.51667 | 77.20804 | 2784 ft | 155 kts | 282° |
| 2026-05-05 14:07 | 28.51929 | 77.19575 | 2567 ft | 165 kts | 281° |
| 2026-05-05 14:07 | 28.52206 | 77.18277 | 2335 ft | 172 kts | 281° |
| 2026-05-05 14:07 | 28.52488 | 77.16954 | 2104 ft | 175 kts | 283° |
| 2026-05-05 14:08 | 28.52767 | 77.15652 | 1863 ft | 160 kts | 284° |
| 2026-05-05 14:08 | 28.53018 | 77.14479 | 1670 ft | 147 kts | 284° |
| 2026-05-05 14:08 | 28.53255 | 77.13372 | 1459 ft | 143 kts | 284° |
| 2026-05-05 14:08 | 28.53490 | 77.12264 | 1290 ft | 144 kts | 284° |
| 2026-05-05 14:09 | 28.53727 | 77.11164 | 1101 ft | 144 kts | 284° |
| 2026-05-05 14:09 | 28.53964 | 77.10043 | 913 ft | 146 kts | 284° |
| 2026-05-05 14:09 | 28.54206 | 77.08927 | 766 ft | 139 kts | 284° |
| 2026-05-05 14:09 | 28.54415 | 77.07965 | 754 ft | 111 kts | 284° |
| 2026-05-05 14:10 | 28.54577 | 77.07205 | 755 ft | 74 kts | 284° |
| 2026-05-05 14:10 | 28.54656 | 77.06881 | 755 ft | 23 kts | 308° |
| 2026-05-05 14:10 | 28.54804 | 77.06873 | 755 ft | 23 kts | 13° |
| 2026-05-05 14:10 | 28.54958 | 77.06914 | 754 ft | 23 kts | 13° |
| 2026-05-05 14:11 | 28.55116 | 77.06957 | 754 ft | 23 kts | 11° |
| 2026-05-05 14:11 | 28.55237 | 77.06988 | 755 ft | 17 kts | 13° |
| 2026-05-05 14:11 | 28.55290 | 77.07056 | 755 ft | 9 kts | 104° |
| 2026-05-05 14:11 | 28.55274 | 77.07131 | 755 ft | 10 kts | 104° |
| 2026-05-05 14:12 | 28.55254 | 77.07215 | 755 ft | 12 kts | 106° |
| 2026-05-05 14:12 | 28.55233 | 77.07309 | 756 ft | 13 kts | 104° |
| 2026-05-05 14:12 | 28.55210 | 77.07410 | 756 ft | 14 kts | 104° |
| 2026-05-05 14:12 | 28.55185 | 77.07521 | 756 ft | 15 kts | 104° |
| 2026-05-05 14:13 | 28.55189 | 77.07628 | 756 ft | 12 kts | 45° |
| 2026-05-05 14:13 | 28.55269 | 77.07657 | 755 ft | 13 kts | 14° |
| 2026-05-05 14:13 | 28.55358 | 77.07683 | 750 ft | 14 kts | 14° |
| 2026-05-05 14:13 | 28.55454 | 77.07711 | 755 ft | 15 kts | 14° |
| 2026-05-05 14:14 | 28.55557 | 77.07740 | 752 ft | 16 kts | 14° |
| 2026-05-05 14:14 | 28.55644 | 77.07803 | 751 ft | 13 kts | 77° |
| 2026-05-05 14:14 | 28.55625 | 77.07907 | 752 ft | 14 kts | 102° |
| 2026-05-05 14:14 | 28.55647 | 77.07993 | 750 ft | 9 kts | 63° |
| 2026-05-05 14:15 | 28.55653 | 77.08057 | 751 ft | 9 kts | 130° |
| 2026-05-05 14:15 | 28.55607 | 77.08093 | 755 ft | 7 kts | 148° |
| 2026-05-05 14:15 | 28.55601 | 77.08097 | 755 ft | 0 kts | 148° |